• Join FlightAware (Why Join?)
  • Login
  • US Flag 
Rudolph Flight #1: Arrived! 
07:55PM EST


 

Airport Tracker/Info


-or-


 

Live Flight TrackerFlight Track Log ✈ JBU56 ✈ 29-Nov-2013 ✈ KIAD - KBOS

Flight Track Log - Related Links

Times and Time Zones

All times are in EST time to prevent confusion due to time zone crossing. See the JBU56 flight status page for this flight to view local times or setup timezone preferences in your user account.

Time Position Orientation Groundspeed Altitude Reporting Facility
EST Latitude Longitude Course Direction KTS MPH feet Rate Location/Type
09:56AM 38.9500 -77.5000 41° Northeast 147 169 1,700  Level Potomac TRACON
09:57AM 38.9833 -77.5167 339° North 170 196 3,100 2,100 Climbing Potomac TRACON
09:58AM 39.0500 -77.5333 349° North 232 267 5,800 2,940 Climbing Potomac TRACON
09:59AM 39.5447 -76.4232 52° Northeast  Level Estimated
09:59AM 39.1167 -77.5000 21° North 273 314 9,000  Level Potomac TRACON
10:00AM 39.5112 -76.3413 118° Southeast  Level FlightAware Approximate
10:00AM 39.1500 -77.4000 67° East 327 376 10,000  Level Potomac TRACON
10:01AM 39.5542 -76.2673 41° Northeast  Level Estimated
10:01AM 39.1667 -77.2667 81° East 373 429 10,000  Level Potomac TRACON
10:02AM 39.1292 -77.0847 105° East 395 455 10,000 780 Level Washington Center
10:03AM 39.1122 -76.9478 99° East 389 448 12,100 2,280 Climbing Washington Center
10:04AM 39.1053 -76.8114 94° East 389 448 14,700 2,400 Climbing Washington Center
10:05AM 39.1169 -76.6617 84° East 394 453 16,900 1,920 Climbing Washington Center
10:06AM 39.1286 -76.5094 84° East 412 474 18,600 1,860 Climbing Washington Center
10:07AM 39.1403 -76.3517 85° East 426 490 20,700 1,980 Climbing Washington Center
10:08AM 39.1558 -76.1883 83° East 438 504 22,600 1,800 Climbing Washington Center
10:09AM 39.1772 -76.0039 81° East 459 528 24,300 1,560 Climbing Washington Center
10:10AM 39.2214 -75.8461 70° East 468 539 25,800 1,440 Climbing Washington Center
10:11AM 39.3092 -75.7311 45° Northeast 440 506 27,200 1,260 Climbing Washington Center
10:12AM 39.4031 -75.6131 44° Northeast 445 512 28,400 1,380 Climbing Washington Center
10:13AM 39.4928 -75.4947 45° Northeast 456 525 30,000 1,260 Climbing Washington Center
10:14AM 39.5864 -75.3708 46° Northeast 461 531 31,000 480 Climbing Washington Center
10:15AM 39.6817 -75.2436 46° Northeast 469 540 31,000  Level Washington Center
10:16AM 39.7378 -75.1658 47° Northeast 480 552 31,000  Level New York Center
10:17AM 39.8303 -75.0311 48° Northeast 491 565 31,000  Level New York Center
10:18AM 39.9247 -74.8961 48° Northeast 502 578 31,000  Level New York Center
10:19AM 40.0083 -74.7708 49° Northeast 502 578 31,000  Level New York Center
10:20AM 40.1044 -74.6381 47° Northeast 502 578 31,000  Level New York Center
10:21AM 40.1961 -74.5044 48° Northeast 502 578 31,000  Level New York Center
10:22AM 40.3042 -74.3881 39° Northeast 497 572 31,000 -660 Level New York Center
10:23AM 40.4075 -74.2761 40° Northeast 491 565 29,700 -1,800 Descending New York Center
10:24AM 40.5064 -74.1719 39° Northeast 471 542 27,400 -1,320 Descending New York Center
10:26AM 40.7033 -73.9303 43° Northeast 466 536 25,700 -840 Descending Boston Center
10:27AM 40.7664 -73.7981 58° Northeast 489 563 25,000 -360 Descending Boston Center
10:28AM 40.8128 -73.6222 71° East 505 581 25,000 -120 Level Boston Center
10:29AM 40.8772 -73.4203 67° East 501 577 24,800 -600 Descending Boston Center
10:30AM 40.9553 -73.3028 49° Northeast 479 551 23,800 -900 Descending Boston Center
10:31AM 41.0592 -73.2214 31° Northeast 431 496 23,000 -420 Descending Boston Center
10:32AM 41.1561 -73.1244 37° Northeast 453 521 23,000  Level Boston Center
10:33AM 41.2172 -72.9592 64° Northeast 495 570 23,000  Level Boston Center
10:34AM 41.2836 -72.7644 66° East 502 578 23,000  Level Boston Center
10:35AM 41.3417 -72.5928 66° East 505 581 23,000  Level Boston Center
10:36AM 41.3983 -72.4219 66° East 503 579 23,000  Level Boston Center
10:37AM 41.4569 -72.2514 65° Northeast 504 580 23,000  Level Boston Center
10:38AM 41.5142 -72.0831 66° East 500 575 23,000 -900 Level Boston Center
10:39AM 41.5661 -71.9122 68° East 500 575 21,200 -1,980 Descending Boston Center
10:40AM 41.6239 -71.7386 66° East 483 556 19,000 -2,040 Descending Boston Center
10:41AM 41.6817 -71.5694 65° Northeast 471 542 17,100 -2,040 Descending Boston Center
10:42AM 41.7283 -71.4236 67° East 437 503 14,900 -2,040 Descending Boston Center
10:43AM 41.7836 -71.2925 60° Northeast 409 471 13,100 -1,740 Descending Boston Center
10:44AM 41.8389 -71.1642 60° Northeast 371 427 11,400 -1,140 Descending Boston Center
10:45AM 41.8833 -71.0667 58° Northeast 299 344 11,000 -900 Descending KA90
10:46AM 41.9167 -70.9667 66° East 299 344 9,700 -1,200 Descending KA90
10:47AM 41.9667 -70.9000 45° Northeast 262 302 8,600 -1,440 Descending KA90
10:48AM 42.0333 -70.8333 37° Northeast 262 302 6,900 -1,680 Descending KA90
10:49AM 42.1000 -70.7833 29° Northeast 267 307 5,300 -1,020 Descending KA90
10:50AM 42.1572 -70.7456 26° Northeast 249 287 4,700 -780 Descending Boston Center
10:51AM 42.1953 -70.7756 330° Northwest 193 222 3,700 -900 Descending Boston Center
10:52AM 42.2253 -70.8169 314° West 170 196 3,000 -420 Descending Boston Center
10:53AM 42.2581 -70.8653 313° West 154 177 2,900 -480 Descending Boston Center
10:54AM 42.2833 -70.9000 315° West 149 171 2,200 -840 Descending KA90
10:55AM 42.3000 -70.9333 304° West 115 132 1,500 -720 Descending KA90
10:56AM 42.3333 -70.9500 340° North 124 143 800 -720 Descending KA90